createdAt,value
2023-05-05T00:00:05.386Z,25.25
2023-05-05T00:01:05.370Z,25.25
2023-05-05T00:02:05.405Z,25.25
2023-05-05T00:03:05.454Z,25.25
2023-05-05T00:04:05.583Z,25.25
2023-05-05T00:05:05.500Z,25.26
2023-05-05T00:06:05.636Z,25.26
2023-05-05T00:07:05.566Z,25.26
2023-05-05T00:08:05.596Z,25.26
2023-05-05T00:09:05.706Z,25.23
2023-05-05T00:10:05.768Z,25.23
2023-05-05T00:11:05.707Z,25.25
2023-05-05T00:12:05.739Z,25.25
2023-05-05T00:13:05.833Z,25.23
2023-05-05T00:14:05.813Z,25.23
2023-05-05T00:15:05.842Z,25.22
2023-05-05T00:16:06.002Z,25.25
2023-05-05T00:17:05.977Z,25.23
2023-05-05T00:18:06.495Z,25.23
2023-05-05T00:19:06.067Z,25.22
2023-05-05T00:20:06.174Z,25.23
2023-05-05T00:21:06.061Z,25.22
2023-05-05T00:22:06.100Z,25.23
2023-05-05T00:23:06.147Z,25.22
2023-05-05T00:24:06.198Z,25.22
2023-05-05T00:25:06.224Z,25.22
2023-05-05T00:26:06.319Z,25.22
2023-05-05T00:27:06.269Z,25.22
2023-05-05T00:28:06.298Z,25.22
2023-05-05T00:29:06.332Z,25.22
2023-05-05T00:30:06.514Z,25.22
2023-05-05T00:31:06.457Z,25.22
2023-05-05T00:32:06.952Z,25.22
2023-05-05T00:33:06.488Z,25.21
2023-05-05T00:34:06.526Z,25.22
2023-05-05T00:35:07.464Z,25.22
2023-05-05T00:36:06.971Z,25.22
2023-05-05T00:37:06.631Z,25.22
2023-05-05T00:38:06.664Z,25.21
2023-05-05T00:39:06.829Z,25.21
2023-05-05T00:40:06.984Z,25.19
2023-05-05T00:41:06.789Z,25.19
2023-05-05T00:42:06.826Z,25.23
2023-05-05T00:43:06.843Z,25.21
2023-05-05T00:44:06.901Z,25.21
2023-05-05T00:45:06.927Z,25.19
2023-05-05T00:46:07.060Z,25.21
2023-05-05T00:47:07.007Z,25.21
2023-05-05T00:48:07.050Z,25.19
2023-05-05T00:49:07.091Z,25.19
2023-05-05T00:50:07.420Z,25.21
2023-05-05T00:51:07.146Z,25.19
2023-05-05T00:52:07.186Z,25.19
2023-05-05T00:53:07.212Z,25.19
2023-05-05T00:54:07.322Z,25.17
2023-05-05T00:55:07.283Z,25.19
2023-05-05T00:56:07.404Z,25.17
2023-05-05T00:57:07.355Z,25.19
2023-05-05T00:58:07.391Z,25.18
2023-05-05T00:59:07.431Z,25.19
2023-05-05T01:00:07.594Z,25.18
2023-05-05T01:01:07.691Z,25.18
2023-05-05T01:02:07.545Z,25.18
2023-05-05T01:03:07.640Z,25.18
2023-05-05T01:04:07.720Z,25.17
2023-05-05T01:05:07.631Z,25.18
2023-05-05T01:06:07.668Z,25.18
2023-05-05T01:07:07.688Z,25.17
2023-05-05T01:08:07.792Z,25.17
2023-05-05T01:09:07.752Z,25.18
2023-05-05T01:10:18.876Z,25.12
2023-05-05T01:11:08.838Z,25.17
2023-05-05T01:12:07.739Z,25.17
2023-05-05T01:13:07.753Z,25.15
2023-05-05T01:14:07.704Z,25.17
2023-05-05T01:15:07.672Z,25.15
2023-05-05T01:16:07.674Z,25.17
2023-05-05T01:17:07.593Z,25.15
2023-05-05T01:18:07.707Z,25.15
2023-05-05T01:19:07.536Z,25.17
2023-05-05T01:20:07.843Z,25.17
2023-05-05T01:21:07.578Z,25.17
2023-05-05T01:22:07.608Z,25.15
2023-05-05T01:23:07.627Z,25.15
2023-05-05T01:24:07.666Z,25.17
2023-05-05T01:25:07.658Z,25.17
2023-05-05T01:26:07.687Z,25.15
2023-05-05T01:27:07.684Z,25.15
2023-05-05T01:28:07.701Z,25.17
2023-05-05T01:29:07.705Z,25.14
2023-05-05T01:30:07.920Z,25.15
2023-05-05T01:31:07.728Z,25.15
2023-05-05T01:32:07.718Z,25.15
2023-05-05T01:33:07.724Z,25.17
2023-05-05T01:34:07.773Z,25.15
2023-05-05T01:35:07.762Z,25.15
2023-05-05T01:36:07.789Z,25.12
2023-05-05T01:37:07.809Z,25.15
2023-05-05T01:38:07.838Z,25.15
2023-05-05T01:39:07.854Z,25.17
2023-05-05T01:40:08.149Z,25.15
2023-05-05T01:41:07.908Z,25.17
2023-05-05T01:42:07.932Z,25.15
2023-05-05T01:43:08.054Z,25.17
2023-05-05T01:44:07.998Z,25.18
2023-05-05T01:45:08.007Z,25.18
2023-05-05T01:46:08.563Z,25.17
2023-05-05T01:47:08.089Z,25.15
2023-05-05T01:48:08.128Z,25.17
2023-05-05T01:49:08.161Z,25.17
2023-05-05T01:50:08.437Z,25.17
2023-05-05T01:51:08.231Z,25.17
2023-05-05T01:52:08.270Z,25.18
2023-05-05T01:53:08.310Z,25.15
2023-05-05T01:54:08.336Z,25.18
2023-05-05T01:55:08.390Z,25.17
2023-05-05T01:56:08.443Z,25.15
2023-05-05T01:57:08.463Z,25.17
2023-05-05T01:58:08.489Z,25.15
2023-05-05T01:59:08.539Z,25.17
2023-05-05T02:00:08.770Z,25.17
2023-05-05T02:01:08.639Z,25.17
2023-05-05T02:02:08.611Z,25.17
2023-05-05T02:03:08.703Z,25.18
2023-05-05T02:04:08.651Z,25.15
2023-05-05T02:05:08.674Z,25.15
2023-05-05T02:06:08.725Z,25.15
2023-05-05T02:07:08.775Z,25.15
2023-05-05T02:08:08.786Z,25.15
2023-05-05T02:09:08.814Z,25.17
2023-05-05T02:10:09.069Z,25.17
2023-05-05T02:11:08.889Z,25.17
2023-05-05T02:12:08.927Z,25.14
2023-05-05T02:13:09.082Z,25.15
2023-05-05T02:14:09.046Z,25.18
2023-05-05T02:15:09.023Z,25.15
2023-05-05T02:16:09.115Z,25.15
2023-05-05T02:17:09.079Z,25.15
2023-05-05T02:18:09.113Z,25.14
2023-05-05T02:19:09.143Z,25.15
2023-05-05T02:20:09.304Z,25.15
2023-05-05T02:21:09.215Z,25.15
2023-05-05T02:22:09.265Z,25.15
2023-05-05T02:23:09.301Z,25.15
2023-05-05T02:24:09.995Z,25.15
2023-05-05T02:25:09.359Z,25.14
2023-05-05T02:26:09.351Z,25.14
2023-05-05T02:27:09.375Z,25.15
2023-05-05T02:28:09.457Z,25.14
2023-05-05T02:29:09.417Z,25.15
2023-05-05T02:30:09.734Z,25.14
2023-05-05T02:31:09.551Z,25.14
2023-05-05T02:32:09.480Z,25.14
2023-05-05T02:33:09.531Z,25.15
2023-05-05T02:34:09.525Z,25.17
2023-05-05T02:35:09.519Z,25.17
2023-05-05T02:36:09.532Z,25.14
2023-05-05T02:37:09.521Z,25.15
2023-05-05T02:38:09.556Z,25.14
2023-05-05T02:39:09.588Z,25.15
2023-05-05T02:40:09.798Z,25.15
2023-05-05T02:41:09.647Z,25.15
2023-05-05T02:42:09.650Z,25.14
2023-05-05T02:43:09.711Z,25.14
2023-05-05T02:44:09.720Z,25.15
2023-05-05T02:45:09.785Z,25.15
2023-05-05T02:46:09.763Z,25.15
2023-05-05T02:47:09.794Z,25.15
2023-05-05T02:48:09.816Z,25.12
2023-05-05T02:49:09.854Z,25.14
2023-05-05T02:50:10.191Z,25.15
2023-05-05T02:51:09.924Z,25.12
2023-05-05T02:52:09.947Z,25.14
2023-05-05T02:53:10.034Z,25.12
2023-05-05T02:54:10.010Z,25.15
2023-05-05T02:55:10.041Z,25.14
2023-05-05T02:56:10.065Z,25.14
2023-05-05T02:57:11.014Z,25.14
2023-05-05T02:58:10.100Z,25.12
2023-05-05T02:59:10.137Z,25.14
2023-05-05T03:00:10.291Z,25.12
2023-05-05T03:01:10.158Z,25.12
2023-05-05T03:02:10.156Z,25.12
2023-05-05T03:03:10.262Z,25.15
2023-05-05T03:04:10.197Z,25.14
2023-05-05T03:05:10.211Z,25.15
2023-05-05T03:06:10.232Z,25.15
2023-05-05T03:07:10.250Z,25.11
2023-05-05T03:08:10.297Z,25.12
2023-05-05T03:09:10.294Z,25.11
2023-05-05T03:10:10.400Z,25.14
2023-05-05T03:11:10.334Z,25.15
2023-05-05T03:12:10.351Z,25.14
2023-05-05T03:13:10.659Z,25.12
2023-05-05T03:14:11.017Z,25.12
2023-05-05T03:15:10.447Z,25.12
2023-05-05T03:16:10.535Z,25.12
2023-05-05T03:17:11.524Z,25.12
2023-05-05T03:18:10.578Z,25.14
2023-05-05T03:19:10.609Z,25.17
2023-05-05T03:20:10.650Z,25.14
2023-05-05T03:21:10.687Z,25.12
2023-05-05T03:22:10.731Z,25.14
2023-05-05T03:23:10.731Z,25.12
2023-05-05T03:24:10.772Z,25.12
2023-05-05T03:25:11.021Z,25.14
2023-05-05T03:26:10.937Z,25.11
2023-05-05T03:27:10.872Z,25.12
2023-05-05T03:28:10.900Z,25.14
2023-05-05T03:29:10.913Z,25.12
2023-05-05T03:30:11.005Z,25.12
2023-05-05T03:31:10.985Z,25.15
2023-05-05T03:32:11.017Z,25.14
2023-05-05T03:33:10.995Z,25.14
2023-05-05T03:34:11.040Z,25.11
2023-05-05T03:35:11.034Z,25.11
2023-05-05T03:36:12.021Z,25.10
2023-05-05T03:37:11.023Z,25.11
2023-05-05T03:38:11.083Z,25.11
2023-05-05T03:39:11.016Z,25.12
2023-05-05T03:40:11.522Z,25.11
2023-05-05T03:41:10.978Z,25.12
2023-05-05T03:42:10.964Z,25.11
2023-05-05T03:43:10.966Z,25.11
2023-05-05T03:44:10.952Z,25.11
2023-05-05T03:45:10.931Z,25.11
2023-05-05T03:46:10.944Z,25.11
2023-05-05T03:47:10.870Z,25.11
2023-05-05T03:48:10.857Z,25.11
2023-05-05T03:49:10.832Z,25.11
2023-05-05T03:50:10.781Z,25.10
2023-05-05T03:51:10.759Z,25.08
2023-05-05T03:52:11.740Z,25.11
2023-05-05T03:53:10.720Z,25.10
2023-05-05T03:54:10.666Z,25.12
2023-05-05T03:55:10.663Z,25.10
2023-05-05T03:56:10.639Z,25.10
2023-05-05T03:57:10.696Z,25.12
2023-05-05T03:58:10.573Z,25.10
2023-05-05T03:59:10.605Z,25.10
2023-05-05T04:00:10.546Z,25.10
2023-05-05T04:01:10.482Z,25.11
2023-05-05T04:02:10.471Z,25.12
2023-05-05T04:03:10.769Z,25.10
2023-05-05T04:04:10.405Z,25.10
2023-05-05T04:05:10.343Z,25.11
2023-05-05T04:06:10.534Z,25.08
2023-05-05T04:07:10.276Z,25.08
2023-05-05T04:08:10.243Z,25.08
2023-05-05T04:09:10.269Z,25.11
2023-05-05T04:10:10.284Z,25.08
2023-05-05T04:11:10.146Z,25.10
2023-05-05T04:12:10.112Z,25.10
2023-05-05T04:13:10.107Z,25.07
2023-05-05T04:14:10.059Z,25.10
2023-05-05T04:15:10.030Z,25.08
2023-05-05T04:16:10.014Z,25.10
2023-05-05T04:17:09.949Z,25.10
2023-05-05T04:18:10.076Z,25.08
2023-05-05T04:19:09.902Z,25.10
2023-05-05T04:20:10.143Z,25.10
2023-05-05T04:21:09.829Z,25.08
2023-05-05T04:22:09.795Z,25.08
2023-05-05T04:23:09.793Z,25.08
2023-05-05T04:24:09.798Z,25.10
2023-05-05T04:25:09.759Z,25.08
2023-05-05T04:26:09.727Z,25.07
2023-05-05T04:27:09.706Z,25.07
2023-05-05T04:28:09.661Z,25.08
2023-05-05T04:29:09.615Z,25.07
2023-05-05T04:30:09.732Z,25.07
2023-05-05T04:31:09.582Z,25.07
2023-05-05T04:32:09.524Z,25.08
2023-05-05T04:33:09.498Z,25.05
2023-05-05T04:34:09.474Z,25.07
2023-05-05T04:35:09.437Z,25.08
2023-05-05T04:36:09.404Z,25.07
2023-05-05T04:37:09.383Z,25.08
2023-05-05T04:38:09.552Z,25.08
2023-05-05T04:39:09.316Z,25.08
2023-05-05T04:40:09.564Z,25.08
2023-05-05T04:41:09.278Z,25.08
2023-05-05T04:42:09.220Z,25.07
2023-05-05T04:43:09.190Z,25.07
2023-05-05T04:44:10.062Z,25.05
2023-05-05T04:45:09.182Z,25.07
2023-05-05T04:46:09.114Z,25.07
2023-05-05T04:47:09.072Z,25.07
2023-05-05T04:48:09.048Z,25.04
2023-05-05T04:49:08.997Z,25.07
2023-05-05T04:50:09.175Z,25.05
2023-05-05T04:51:08.956Z,25.08
2023-05-05T04:52:08.915Z,25.07
2023-05-05T04:53:08.902Z,25.07
2023-05-05T04:54:08.859Z,25.05
2023-05-05T04:55:08.851Z,25.07
2023-05-05T04:56:08.859Z,25.08
2023-05-05T04:57:09.553Z,25.07
2023-05-05T04:58:08.771Z,25.10
2023-05-05T04:59:08.771Z,25.07
2023-05-05T05:00:09.003Z,25.05
2023-05-05T05:01:08.694Z,25.07
2023-05-05T05:02:08.697Z,25.07
2023-05-05T05:03:08.779Z,25.07
2023-05-05T05:04:08.621Z,25.07
2023-05-05T05:05:08.692Z,25.07
2023-05-05T05:06:08.613Z,25.07
2023-05-05T05:07:08.601Z,25.05
2023-05-05T05:08:08.604Z,25.05
2023-05-05T05:09:08.563Z,25.07
2023-05-05T05:10:08.720Z,25.07
2023-05-05T05:11:08.547Z,25.08
2023-05-05T05:12:08.513Z,25.10
2023-05-05T05:13:09.632Z,25.08
2023-05-05T05:14:08.472Z,25.07
2023-05-05T05:15:08.477Z,25.05
2023-05-05T05:16:08.421Z,25.05
2023-05-05T05:17:08.360Z,25.08
2023-05-05T05:18:08.350Z,25.02
2023-05-05T05:19:08.281Z,25.01
2023-05-05T05:20:08.477Z,24.95
2023-05-05T05:21:08.222Z,24.91
2023-05-05T05:22:08.196Z,24.83
2023-05-05T05:23:08.152Z,24.81
2023-05-05T05:24:08.178Z,24.76
2023-05-05T05:25:08.111Z,24.71
2023-05-05T05:26:08.064Z,24.63
2023-05-05T05:27:09.838Z,24.63
2023-05-05T05:28:10.741Z,24.62
2023-05-05T05:29:08.033Z,24.60
2023-05-05T05:30:08.078Z,24.66
2023-05-05T05:31:08.563Z,24.62
2023-05-05T05:32:07.952Z,24.69
2023-05-05T05:33:07.929Z,24.76
2023-05-05T05:34:09.366Z,24.74
2023-05-05T05:35:07.826Z,24.64
2023-05-05T05:36:07.816Z,24.58
2023-05-05T05:37:07.796Z,24.44
2023-05-05T05:38:07.765Z,24.38
2023-05-05T05:39:07.751Z,24.29
2023-05-05T05:40:07.938Z,24.26
2023-05-05T05:41:07.727Z,24.21
2023-05-05T05:42:07.708Z,24.14
2023-05-05T05:43:07.708Z,24.08
2023-05-05T05:44:07.693Z,24.08
2023-05-05T05:45:07.683Z,24.04
2023-05-05T05:46:09.382Z,24.03
2023-05-05T05:47:07.650Z,24.03
2023-05-05T05:48:07.652Z,24.00
2023-05-05T05:49:07.667Z,24.03
2023-05-05T05:50:07.892Z,24.04
2023-05-05T05:51:07.597Z,24.07
2023-05-05T05:52:07.571Z,24.07
2023-05-05T05:53:07.542Z,24.11
2023-05-05T05:54:07.523Z,24.14
2023-05-05T05:55:07.522Z,24.15
2023-05-05T05:56:07.496Z,24.17
2023-05-05T05:57:07.515Z,24.19
2023-05-05T05:58:07.531Z,24.21
2023-05-05T05:59:07.575Z,24.22
2023-05-05T06:00:07.966Z,24.25
2023-05-05T06:01:07.647Z,24.24
2023-05-05T06:02:07.750Z,24.24
2023-05-05T06:03:08.040Z,24.24
2023-05-05T06:04:07.970Z,24.22
2023-05-05T06:05:07.814Z,24.24
2023-05-05T06:06:07.875Z,24.22
2023-05-05T06:07:07.974Z,24.19
2023-05-05T06:08:07.967Z,24.19
2023-05-05T06:09:08.001Z,24.17
2023-05-05T06:10:22.816Z,24.19
2023-05-05T06:11:09.031Z,24.19
2023-05-05T06:12:08.014Z,24.19
2023-05-05T06:13:08.097Z,24.19
2023-05-05T06:14:07.984Z,24.19
2023-05-05T06:15:07.961Z,24.21
2023-05-05T06:16:08.014Z,24.22
2023-05-05T06:17:07.921Z,24.21
2023-05-05T06:18:07.918Z,24.17
2023-05-05T06:19:07.917Z,24.17
2023-05-05T06:20:08.079Z,24.15
2023-05-05T06:21:08.067Z,24.18
2023-05-05T06:22:08.041Z,24.24
2023-05-05T06:23:08.105Z,24.25
2023-05-05T06:24:08.094Z,24.28
2023-05-05T06:25:08.178Z,24.29
2023-05-05T06:26:08.170Z,24.29
2023-05-05T06:27:08.582Z,24.34
2023-05-05T06:28:08.217Z,24.39
2023-05-05T06:29:09.134Z,24.44
2023-05-05T06:30:08.506Z,24.49
2023-05-05T06:31:08.238Z,24.58
2023-05-05T06:32:08.236Z,24.63
2023-05-05T06:33:08.266Z,24.70
2023-05-05T06:34:08.162Z,24.77
2023-05-05T06:35:08.137Z,24.87
2023-05-05T06:36:08.110Z,24.90
2023-05-05T06:37:08.064Z,24.97
2023-05-05T06:38:08.056Z,25.01
2023-05-05T06:39:08.100Z,25.08
2023-05-05T06:40:08.314Z,25.12
2023-05-05T06:41:08.179Z,25.19
2023-05-05T06:42:08.202Z,25.23
2023-05-05T06:43:08.230Z,25.29
2023-05-05T06:44:08.261Z,25.33
2023-05-05T06:45:08.277Z,25.37
2023-05-05T06:46:08.318Z,25.42
2023-05-05T06:47:08.358Z,25.46
2023-05-05T06:48:08.445Z,25.49
2023-05-05T06:49:08.322Z,25.53
2023-05-05T06:50:08.508Z,25.56
2023-05-05T06:51:08.353Z,25.56
2023-05-05T06:52:08.391Z,25.62
2023-05-05T06:53:08.413Z,25.66
2023-05-05T06:54:08.392Z,25.66
2023-05-05T06:55:08.338Z,25.70
2023-05-05T06:56:08.330Z,25.71
2023-05-05T06:57:08.313Z,25.74
2023-05-05T06:58:08.330Z,25.77
2023-05-05T06:59:08.280Z,25.80
2023-05-05T07:00:08.445Z,25.80
2023-05-05T07:01:08.268Z,25.84
2023-05-05T07:02:08.229Z,25.85
2023-05-05T07:03:08.214Z,25.87
2023-05-05T07:04:08.221Z,25.91
2023-05-05T07:05:08.153Z,25.92
2023-05-05T07:06:08.151Z,25.91
2023-05-05T07:07:08.084Z,25.95
2023-05-05T07:08:08.036Z,25.98
2023-05-05T07:09:08.240Z,26.01
2023-05-05T07:10:08.030Z,26.01
2023-05-05T07:11:08.149Z,26.04
2023-05-05T07:12:07.927Z,26.05
2023-05-05T07:13:07.940Z,26.06
2023-05-05T07:14:07.844Z,26.08
2023-05-05T07:15:23.466Z,26.08
2023-05-05T07:16:08.777Z,26.09
2023-05-05T07:17:07.710Z,26.11
2023-05-05T07:18:07.699Z,26.13
2023-05-05T07:19:07.632Z,26.06
2023-05-05T07:20:07.925Z,26.05
2023-05-05T07:21:07.537Z,26.08
2023-05-05T07:22:07.493Z,26.09
2023-05-05T07:23:07.449Z,26.06
2023-05-05T07:24:07.410Z,26.06
2023-05-05T07:25:07.449Z,26.12
2023-05-05T07:26:07.397Z,26.12
2023-05-05T07:27:07.361Z,26.15
2023-05-05T07:28:07.269Z,26.11
2023-05-05T07:29:07.614Z,26.12
2023-05-05T07:30:12.387Z,26.15
2023-05-05T07:31:08.131Z,26.19
2023-05-05T07:32:07.132Z,26.18
2023-05-05T07:33:07.123Z,26.19
2023-05-05T07:34:07.020Z,26.22
2023-05-05T07:35:06.965Z,26.21
2023-05-05T07:36:06.937Z,26.22
2023-05-05T07:37:06.878Z,26.21
2023-05-05T07:38:07.717Z,26.25
2023-05-05T07:39:06.811Z,26.22
2023-05-05T07:40:07.148Z,26.25
2023-05-05T07:41:06.814Z,26.25
2023-05-05T07:42:06.675Z,26.26
2023-05-05T07:43:06.633Z,26.28
2023-05-05T07:44:06.581Z,26.26
2023-05-05T07:45:06.598Z,26.29
2023-05-05T07:46:06.533Z,26.30
2023-05-05T07:47:06.452Z,26.29
2023-05-05T07:48:07.169Z,26.32
2023-05-05T07:49:06.357Z,26.36
2023-05-05T07:50:06.703Z,26.39
2023-05-05T07:51:06.267Z,26.44
2023-05-05T07:52:06.236Z,26.44
2023-05-05T07:53:14.471Z,26.51
2023-05-05T07:54:07.130Z,26.53
2023-05-05T07:55:06.088Z,26.57
2023-05-05T07:56:06.042Z,26.63
2023-05-05T07:57:06.128Z,26.63
2023-05-05T07:58:05.950Z,26.61
2023-05-05T07:59:05.930Z,26.63
2023-05-05T08:00:06.049Z,26.63
2023-05-05T08:01:06.572Z,26.61
2023-05-05T08:02:05.888Z,26.61
2023-05-05T08:03:07.054Z,26.61
2023-05-05T08:04:06.234Z,26.63
2023-05-05T08:05:06.099Z,26.63
2023-05-05T08:06:05.874Z,26.63
2023-05-05T08:07:05.873Z,26.61
2023-05-05T08:08:05.883Z,26.63
2023-05-05T08:09:05.852Z,26.63
2023-05-05T08:10:05.867Z,26.63
2023-05-05T08:11:05.921Z,26.60
2023-05-05T08:12:05.858Z,26.58
2023-05-05T08:13:05.949Z,26.61
2023-05-05T08:14:05.838Z,26.61
2023-05-05T08:15:06.013Z,26.58
2023-05-05T08:16:05.949Z,26.56
2023-05-05T08:17:05.802Z,26.56
2023-05-05T08:18:05.867Z,26.56
2023-05-05T08:19:14.508Z,26.51
2023-05-05T08:20:06.769Z,26.50
2023-05-05T08:21:05.723Z,26.49
2023-05-05T08:22:05.676Z,26.44
2023-05-05T08:23:05.649Z,26.42
2023-05-05T08:24:05.600Z,26.40
2023-05-05T08:25:05.642Z,26.40
2023-05-05T08:26:05.518Z,26.39
2023-05-05T08:27:05.478Z,26.38
2023-05-05T08:28:06.135Z,26.38
2023-05-05T08:29:05.536Z,26.33
2023-05-05T08:30:05.496Z,26.33
2023-05-05T08:31:05.603Z,26.33
2023-05-05T08:32:05.544Z,26.32
2023-05-05T08:33:05.624Z,26.32
2023-05-05T08:34:05.643Z,26.29
2023-05-05T08:35:05.744Z,26.29
2023-05-05T08:36:06.637Z,26.28
2023-05-05T08:37:05.679Z,26.29
2023-05-05T08:38:05.736Z,26.28
2023-05-05T08:39:05.747Z,26.26
2023-05-05T08:40:05.843Z,26.25
2023-05-05T08:41:05.799Z,26.26
2023-05-05T08:42:06.158Z,26.25
2023-05-05T08:43:05.854Z,26.25
2023-05-05T08:44:05.868Z,26.25
2023-05-05T08:45:06.278Z,26.22
2023-05-05T08:46:05.853Z,26.23
2023-05-05T08:47:05.979Z,26.25
2023-05-05T08:48:05.838Z,26.22
2023-05-05T08:49:05.775Z,26.22
2023-05-05T08:50:05.731Z,26.23
2023-05-05T08:51:05.815Z,26.21
2023-05-05T08:52:05.693Z,26.19
2023-05-05T08:53:05.712Z,26.19
2023-05-05T08:54:05.657Z,26.18
2023-05-05T08:55:05.721Z,26.16
2023-05-05T08:56:05.603Z,26.18
2023-05-05T08:57:05.573Z,26.18
2023-05-05T08:58:05.548Z,26.15
2023-05-05T08:59:05.520Z,26.18
2023-05-05T09:00:05.508Z,26.15
2023-05-05T09:01:05.654Z,26.16
2023-05-05T09:02:06.174Z,26.13
2023-05-05T09:03:05.566Z,26.15
2023-05-05T09:04:05.427Z,26.13
2023-05-05T09:05:05.528Z,26.13
2023-05-05T09:06:05.345Z,26.12
2023-05-05T09:07:05.343Z,26.12
2023-05-05T09:08:05.281Z,26.12
2023-05-05T09:09:06.138Z,26.11
2023-05-05T09:10:05.220Z,26.08
2023-05-05T09:11:05.171Z,26.11
2023-05-05T09:12:05.147Z,26.09
2023-05-05T09:13:05.160Z,26.08
2023-05-05T09:14:05.058Z,26.09
2023-05-05T09:15:05.337Z,26.09
2023-05-05T09:16:04.994Z,26.08
2023-05-05T09:17:05.105Z,26.09
2023-05-05T09:18:05.000Z,26.08
2023-05-05T09:19:04.908Z,26.01
2023-05-05T09:20:04.910Z,25.95
2023-05-05T09:21:04.825Z,25.99
2023-05-05T09:22:04.905Z,26.04
2023-05-05T09:23:04.777Z,26.06
2023-05-05T09:24:08.177Z,26.08
2023-05-05T09:25:04.794Z,26.09
2023-05-05T09:26:04.680Z,26.11
2023-05-05T09:27:04.633Z,26.13
2023-05-05T09:28:05.174Z,26.16
2023-05-05T09:29:04.607Z,26.19
2023-05-05T09:30:04.519Z,26.21
2023-05-05T09:31:04.501Z,26.22
2023-05-05T09:32:04.441Z,26.23
2023-05-05T09:33:04.528Z,26.23
2023-05-05T09:34:04.402Z,26.25
2023-05-05T09:35:04.353Z,26.26
2023-05-05T09:36:04.289Z,26.26
2023-05-05T09:37:04.267Z,26.28
2023-05-05T09:38:04.237Z,26.29
2023-05-05T09:39:04.173Z,26.29
2023-05-05T09:40:04.137Z,26.33
2023-05-05T09:41:04.131Z,26.30
2023-05-05T09:42:04.170Z,26.35
2023-05-05T09:43:04.047Z,26.33
2023-05-05T09:44:04.043Z,26.35
2023-05-05T09:45:04.137Z,26.36
2023-05-05T09:46:05.108Z,26.35
2023-05-05T09:47:09.341Z,26.38
2023-05-05T09:48:05.133Z,26.36
2023-05-05T09:49:04.164Z,26.36
2023-05-05T09:50:04.009Z,26.39
2023-05-05T09:51:04.651Z,26.38
2023-05-05T09:52:03.926Z,26.39
2023-05-05T09:53:03.917Z,26.39
2023-05-05T09:54:03.842Z,26.39
2023-05-05T09:55:03.809Z,26.40
2023-05-05T09:56:03.877Z,26.42
2023-05-05T09:57:03.805Z,26.42
2023-05-05T09:58:04.610Z,26.42
2023-05-05T09:59:03.844Z,26.42
2023-05-05T10:00:04.008Z,26.43
2023-05-05T10:01:03.872Z,26.42
2023-05-05T10:02:03.896Z,26.46
2023-05-05T10:03:04.229Z,26.44
2023-05-05T10:04:03.930Z,26.44
2023-05-05T10:05:04.912Z,26.44
2023-05-05T10:06:04.586Z,26.47
2023-05-05T10:07:04.760Z,26.43
2023-05-05T10:08:04.027Z,26.44
2023-05-05T10:09:03.992Z,26.42
2023-05-05T10:10:04.009Z,26.38
2023-05-05T10:11:04.043Z,26.35
2023-05-05T10:12:04.035Z,26.40
2023-05-05T10:13:04.134Z,26.44
2023-05-05T10:14:04.098Z,26.43
2023-05-05T10:15:04.023Z,26.49
2023-05-05T10:16:04.046Z,26.54
2023-05-05T10:17:04.654Z,26.49
2023-05-05T10:18:07.799Z,26.43
2023-05-05T10:19:03.971Z,26.43
2023-05-05T10:20:03.934Z,26.50
2023-05-05T10:21:04.027Z,26.50
2023-05-05T10:22:03.844Z,26.54
2023-05-05T10:23:03.815Z,26.57
2023-05-05T10:24:03.827Z,26.60
2023-05-05T10:25:03.728Z,26.63
2023-05-05T10:26:03.677Z,26.63
2023-05-05T10:27:03.632Z,26.67
2023-05-05T10:28:03.590Z,26.68
2023-05-05T10:29:03.558Z,26.71
2023-05-05T10:30:03.525Z,26.71
2023-05-05T10:31:07.825Z,26.74
2023-05-05T10:32:16.304Z,26.75
2023-05-05T10:33:18.226Z,26.77
2023-05-05T10:34:05.474Z,26.78
2023-05-05T10:35:03.298Z,26.80
2023-05-05T10:36:03.289Z,26.82
2023-05-05T10:37:03.324Z,26.84
2023-05-05T10:38:03.172Z,26.85
2023-05-05T10:39:03.171Z,26.82
2023-05-05T10:40:03.196Z,26.81
2023-05-05T10:41:03.052Z,26.82
2023-05-05T10:42:03.676Z,26.82
2023-05-05T10:43:02.963Z,26.84
2023-05-05T10:44:04.594Z,26.84
2023-05-05T10:45:03.622Z,26.87
2023-05-05T10:46:02.962Z,26.88
2023-05-05T10:47:02.807Z,26.90
2023-05-05T10:48:02.863Z,26.91
2023-05-05T10:49:02.739Z,26.91
2023-05-05T10:50:02.693Z,26.91
2023-05-05T10:51:02.668Z,26.92
2023-05-05T10:52:02.709Z,26.94
2023-05-05T10:53:02.629Z,26.94
2023-05-05T10:54:02.597Z,26.97
2023-05-05T10:55:03.173Z,26.94
2023-05-05T10:56:02.515Z,26.95
2023-05-05T10:57:02.476Z,26.97
2023-05-05T10:58:02.446Z,26.97
2023-05-05T10:59:02.430Z,26.94
2023-05-05T11:00:02.411Z,26.99
2023-05-05T11:01:02.447Z,26.97
2023-05-05T11:02:02.354Z,26.97
2023-05-05T11:03:02.415Z,26.98
2023-05-05T11:04:02.407Z,26.95
2023-05-05T11:05:02.802Z,26.94
2023-05-05T11:06:02.259Z,26.97
2023-05-05T11:07:02.237Z,26.97
2023-05-05T11:08:02.222Z,26.94
2023-05-05T11:09:02.247Z,26.97
2023-05-05T11:10:02.149Z,26.95
2023-05-05T11:11:02.155Z,26.95
2023-05-05T11:12:02.051Z,26.95
2023-05-05T11:13:02.083Z,26.91
2023-05-05T11:14:01.972Z,26.92
2023-05-05T11:15:01.937Z,26.91
2023-05-05T11:16:01.909Z,26.92
2023-05-05T11:17:02.020Z,26.91
2023-05-05T11:18:04.883Z,26.90
2023-05-05T11:19:02.691Z,26.90
2023-05-05T11:20:01.747Z,26.91
2023-05-05T11:21:01.697Z,26.88
2023-05-05T11:22:01.731Z,26.90
2023-05-05T11:23:01.616Z,26.87
2023-05-05T11:24:01.564Z,26.87
2023-05-05T11:25:01.565Z,26.87
2023-05-05T11:26:01.459Z,26.90
2023-05-05T11:27:01.417Z,26.85
2023-05-05T11:28:01.388Z,26.85
2023-05-05T11:29:01.333Z,26.85
2023-05-05T11:30:01.321Z,26.85
2023-05-05T11:31:01.375Z,26.87
2023-05-05T11:32:01.230Z,26.87
2023-05-05T11:33:01.208Z,26.85
2023-05-05T11:34:01.109Z,26.84
2023-05-05T11:35:01.071Z,26.84
2023-05-05T11:36:01.850Z,26.85
2023-05-05T11:37:01.006Z,26.82
2023-05-05T11:38:00.982Z,26.84
2023-05-05T11:39:00.948Z,26.84
2023-05-05T11:40:00.939Z,26.84
2023-05-05T11:41:00.951Z,26.84
2023-05-05T11:42:03.384Z,26.81
2023-05-05T11:43:01.840Z,26.84
2023-05-05T11:44:00.767Z,26.85
2023-05-05T11:45:01.107Z,26.85
2023-05-05T11:46:00.730Z,26.84
2023-05-05T11:47:00.685Z,26.82
2023-05-05T11:48:01.332Z,26.85
2023-05-05T11:49:01.193Z,26.84
2023-05-05T11:50:00.543Z,26.87
2023-05-05T11:51:00.439Z,26.85
2023-05-05T11:52:00.494Z,26.84
2023-05-05T11:53:00.362Z,26.85
2023-05-05T11:54:00.298Z,26.85
2023-05-05T11:55:00.338Z,26.84
2023-05-05T11:56:00.204Z,26.85
2023-05-05T11:57:00.174Z,26.87
2023-05-05T11:58:00.126Z,26.85
2023-05-05T11:59:00.063Z,26.87
2023-05-05T12:00:00.003Z,26.87
2023-05-05T12:01:00.028Z,26.88
2023-05-05T12:01:59.902Z,26.90
2023-05-05T12:02:59.922Z,26.88
2023-05-05T12:03:59.927Z,26.88
2023-05-05T12:04:59.831Z,26.90
2023-05-05T12:05:59.754Z,26.90
2023-05-05T12:06:59.669Z,26.91
2023-05-05T12:07:59.758Z,26.91
2023-05-05T12:08:59.568Z,26.91
2023-05-05T12:09:59.514Z,26.92
2023-05-05T12:10:59.469Z,26.92
2023-05-05T12:11:59.422Z,26.92
2023-05-05T12:13:00.256Z,26.94
2023-05-05T12:13:59.331Z,26.95
2023-05-05T12:14:59.301Z,26.94
2023-05-05T12:15:59.259Z,26.98
2023-05-05T12:16:59.177Z,26.95
2023-05-05T12:18:01.443Z,26.97
2023-05-05T12:18:59.082Z,26.98
2023-05-05T12:19:59.051Z,26.99
2023-05-05T12:20:59.000Z,26.99
2023-05-05T12:21:58.948Z,26.98
2023-05-05T12:22:58.910Z,26.99
2023-05-05T12:23:58.874Z,27.01
2023-05-05T12:24:58.798Z,27.02
2023-05-05T12:25:58.757Z,27.01
2023-05-05T12:26:58.704Z,27.02
2023-05-05T12:27:58.652Z,27.03
2023-05-05T12:28:58.622Z,27.03
2023-05-05T12:29:58.560Z,27.03
2023-05-05T12:30:58.541Z,27.05
2023-05-05T12:31:58.487Z,27.05
2023-05-05T12:32:58.456Z,27.06
2023-05-05T12:33:58.410Z,27.03
2023-05-05T12:34:58.301Z,27.08
2023-05-05T12:35:58.235Z,27.06
2023-05-05T12:36:58.176Z,27.09
2023-05-05T12:37:58.119Z,27.08
2023-05-05T12:38:58.074Z,27.08
2023-05-05T12:39:58.034Z,27.09
2023-05-05T12:40:58.223Z,27.12
2023-05-05T12:41:57.904Z,27.10
2023-05-05T12:42:57.853Z,27.12
2023-05-05T12:43:57.796Z,27.12
2023-05-05T12:44:58.725Z,27.13
2023-05-05T12:45:57.730Z,27.15
2023-05-05T12:46:57.660Z,27.15
2023-05-05T12:47:57.603Z,27.13
2023-05-05T12:48:57.524Z,27.16
2023-05-05T12:49:57.489Z,27.15
2023-05-05T12:50:57.429Z,27.16
2023-05-05T12:51:57.378Z,27.15